createdAt,value
2017-10-26T00:00:23.038Z,4.70
2017-10-26T00:01:29.872Z,4.80
2017-10-26T00:02:36.652Z,4.60
2017-10-26T00:03:43.466Z,5.20
2017-10-26T00:04:50.282Z,4.90
2017-10-26T00:05:57.093Z,4.70
2017-10-26T00:07:03.932Z,4.40
2017-10-26T00:08:10.717Z,4.80
2017-10-26T00:09:17.534Z,5.10
2017-10-26T00:10:24.416Z,4.70
2017-10-26T00:11:31.229Z,5.00
2017-10-26T00:12:37.993Z,4.80
2017-10-26T00:13:44.773Z,4.40
2017-10-26T00:14:51.568Z,4.70
2017-10-26T00:15:58.346Z,5.00
2017-10-26T00:17:05.137Z,5.20
2017-10-26T00:18:12.001Z,5.00
2017-10-26T00:19:18.892Z,4.90
2017-10-26T00:20:25.776Z,5.10
2017-10-26T00:21:32.629Z,4.70
2017-10-26T00:22:39.421Z,5.20
2017-10-26T00:23:46.481Z,5.20
2017-10-26T00:24:53.297Z,4.90
2017-10-26T00:26:00.172Z,5.30
2017-10-26T00:27:06.948Z,5.00
2017-10-26T00:28:13.721Z,4.90
2017-10-26T00:29:20.529Z,4.90
2017-10-26T00:30:27.358Z,4.40
2017-10-26T00:31:34.264Z,4.70
2017-10-26T00:32:41.061Z,4.90
2017-10-26T00:33:47.849Z,4.90
2017-10-26T00:34:54.642Z,5.20
2017-10-26T00:36:01.450Z,5.20
2017-10-26T00:37:08.233Z,5.20
2017-10-26T00:38:15.013Z,4.90
2017-10-26T00:39:21.819Z,5.00
2017-10-26T00:40:28.626Z,4.90
2017-10-26T00:41:35.409Z,4.90
2017-10-26T00:42:42.200Z,5.20
2017-10-26T00:43:48.958Z,5.30
2017-10-26T00:44:55.767Z,6.10
2017-10-26T00:46:02.576Z,6.50
2017-10-26T00:47:09.372Z,5.90
2017-10-26T00:48:16.145Z,6.10
2017-10-26T00:49:23.381Z,5.70
2017-10-26T00:50:29.692Z,6.20
2017-10-26T00:51:36.513Z,5.90
2017-10-26T00:52:43.289Z,7.20
2017-10-26T00:53:50.068Z,6.40
2017-10-26T00:54:56.900Z,6.50
2017-10-26T00:56:03.681Z,6.90
2017-10-26T00:57:10.570Z,7.70
2017-10-26T00:58:17.377Z,7.50
2017-10-26T00:59:24.274Z,7.70
2017-10-26T01:00:31.117Z,7.90
2017-10-26T01:01:37.987Z,8.30
2017-10-26T01:02:44.846Z,8.90
2017-10-26T01:03:51.729Z,8.10
2017-10-26T01:04:58.757Z,9.70
2017-10-26T01:06:05.578Z,8.70
2017-10-26T01:07:12.379Z,8.50
2017-10-26T01:08:19.210Z,8.50
2017-10-26T01:09:26.086Z,8.90
2017-10-26T01:10:32.875Z,8.40
2017-10-26T01:11:39.702Z,8.00
2017-10-26T01:12:46.506Z,8.00
2017-10-26T01:13:53.298Z,8.60
2017-10-26T01:15:00.094Z,8.60
2017-10-26T01:16:06.938Z,7.50
2017-10-26T01:17:13.904Z,8.10
2017-10-26T01:18:20.771Z,8.20
2017-10-26T01:19:27.887Z,8.00
2017-10-26T01:20:34.674Z,8.90
2017-10-26T01:21:41.572Z,8.60
2017-10-26T01:22:48.437Z,8.50
2017-10-26T01:23:55.265Z,8.30
2017-10-26T01:25:02.158Z,7.60
2017-10-26T01:26:09.133Z,8.30
2017-10-26T01:27:15.941Z,8.40
2017-10-26T01:28:22.773Z,8.40
2017-10-26T01:29:29.681Z,8.50
2017-10-26T01:30:36.522Z,7.90
2017-10-26T01:31:43.373Z,8.40
2017-10-26T01:32:50.274Z,8.70
2017-10-26T01:33:57.065Z,8.00
2017-10-26T01:35:04.425Z,8.70
2017-10-26T01:36:10.818Z,8.60
2017-10-26T01:37:17.796Z,8.30
2017-10-26T01:38:24.589Z,8.50
2017-10-26T01:39:31.441Z,8.80
2017-10-26T01:40:38.250Z,8.60
2017-10-26T01:41:45.132Z,9.00
2017-10-26T01:42:51.985Z,8.80
2017-10-26T01:43:59.362Z,8.80
2017-10-26T01:45:05.708Z,8.40
2017-10-26T01:46:12.599Z,8.90
2017-10-26T01:47:19.484Z,8.80
2017-10-26T01:48:26.366Z,9.10
2017-10-26T01:49:33.206Z,8.90
2017-10-26T01:50:40.006Z,8.70
2017-10-26T01:51:46.967Z,9.10
2017-10-26T01:52:53.815Z,7.90
2017-10-26T01:54:00.713Z,8.50
2017-10-26T01:55:07.538Z,9.20
2017-10-26T01:56:14.465Z,8.70
2017-10-26T01:57:21.304Z,8.50
2017-10-26T01:58:28.229Z,8.70
2017-10-26T01:59:35.114Z,9.50
2017-10-26T02:00:41.945Z,8.60
2017-10-26T02:01:48.799Z,8.80
2017-10-26T02:02:55.702Z,8.60
2017-10-26T02:04:02.536Z,8.00
2017-10-26T02:05:09.534Z,8.70
2017-10-26T02:06:16.394Z,8.80
2017-10-26T02:07:23.430Z,8.50
2017-10-26T02:08:30.365Z,7.90
2017-10-26T02:09:37.218Z,8.60
2017-10-26T02:10:44.108Z,8.00
2017-10-26T02:11:51.042Z,8.40
2017-10-26T02:12:57.897Z,8.40
2017-10-26T02:14:04.753Z,8.40
2017-10-26T02:15:11.598Z,7.30
2017-10-26T02:16:18.833Z,7.60
2017-10-26T02:17:25.174Z,8.10
2017-10-26T02:18:32.038Z,7.40
2017-10-26T02:19:38.857Z,7.70
2017-10-26T02:20:45.755Z,7.60
2017-10-26T02:21:52.616Z,7.80
2017-10-26T02:22:59.559Z,8.00
2017-10-26T02:24:06.657Z,7.50
2017-10-26T02:25:13.549Z,8.30
2017-10-26T02:26:20.394Z,8.00
2017-10-26T02:27:27.390Z,7.20
2017-10-26T02:28:34.192Z,7.50
2017-10-26T02:29:41.132Z,7.60
2017-10-26T02:31:51.875Z,6.90
2017-10-26T02:32:58.690Z,7.70
2017-10-26T02:34:05.518Z,7.50
2017-10-26T02:35:12.460Z,7.60
2017-10-26T02:36:19.330Z,7.40
2017-10-26T02:37:26.388Z,7.60
2017-10-26T02:38:33.301Z,7.30
2017-10-26T02:39:40.233Z,7.40
2017-10-26T02:40:47.146Z,7.00
2017-10-26T02:41:54.077Z,7.30
2017-10-26T02:43:00.927Z,7.10
2017-10-26T02:44:07.812Z,6.80
2017-10-26T02:45:14.626Z,6.90
2017-10-26T02:46:21.494Z,7.10
2017-10-26T02:47:28.673Z,6.70
2017-10-26T02:48:35.518Z,7.30
2017-10-26T02:49:42.386Z,7.10
2017-10-26T02:50:49.262Z,7.30
2017-10-26T02:51:56.166Z,7.20
2017-10-26T02:53:03.024Z,7.20
2017-10-26T02:54:09.862Z,7.50
2017-10-26T02:55:16.829Z,6.70
2017-10-26T02:56:23.709Z,6.60
2017-10-26T02:57:30.589Z,6.50
2017-10-26T02:58:37.714Z,7.10
2017-10-26T02:59:44.612Z,6.60
2017-10-26T03:00:51.474Z,6.90
2017-10-26T03:01:58.434Z,6.90
2017-10-26T03:03:05.289Z,7.10
2017-10-26T03:04:12.137Z,6.50
2017-10-26T03:05:18.964Z,6.80
2017-10-26T03:06:25.813Z,6.80
2017-10-26T03:07:32.688Z,7.20
2017-10-26T03:08:39.535Z,6.90
2017-10-26T03:09:46.406Z,6.90
2017-10-26T03:10:53.319Z,7.10
2017-10-26T03:12:00.235Z,7.20
2017-10-26T03:13:07.089Z,7.20
2017-10-26T03:14:13.923Z,6.90
2017-10-26T03:15:20.793Z,6.80
2017-10-26T03:16:27.685Z,7.10
2017-10-26T03:17:34.554Z,6.90
2017-10-26T03:18:41.381Z,7.50
2017-10-26T03:19:48.232Z,6.70
2017-10-26T03:20:55.077Z,6.90
2017-10-26T03:22:01.907Z,6.70
2017-10-26T03:23:08.832Z,6.70
2017-10-26T03:24:15.711Z,6.50
2017-10-26T03:25:22.581Z,6.40
2017-10-26T03:26:29.426Z,6.90
2017-10-26T03:27:36.314Z,6.80
2017-10-26T03:28:43.279Z,7.30
2017-10-26T03:29:50.126Z,7.00
2017-10-26T03:30:56.978Z,6.60
2017-10-26T03:32:03.830Z,6.70
2017-10-26T03:33:10.682Z,7.70
2017-10-26T03:34:17.514Z,6.50
2017-10-26T03:35:24.382Z,6.80
2017-10-26T03:36:31.253Z,6.40
2017-10-26T03:37:38.107Z,7.10
2017-10-26T03:38:44.945Z,7.00
2017-10-26T03:39:51.813Z,7.50
2017-10-26T03:40:58.794Z,6.80
2017-10-26T03:42:05.662Z,6.90
2017-10-26T03:43:12.602Z,7.20
2017-10-26T03:44:19.440Z,7.30
2017-10-26T03:45:26.294Z,6.70
2017-10-26T03:46:33.161Z,6.80
2017-10-26T03:47:40.002Z,7.40
2017-10-26T03:48:46.919Z,7.00
2017-10-26T03:49:53.798Z,7.40
2017-10-26T03:51:00.938Z,7.40
2017-10-26T03:52:07.284Z,7.20
2017-10-26T03:53:14.238Z,6.50
2017-10-26T03:54:21.061Z,6.80
2017-10-26T03:55:27.999Z,7.40
2017-10-26T03:56:34.861Z,7.10
2017-10-26T03:57:41.666Z,7.30
2017-10-26T03:58:48.633Z,7.00
2017-10-26T03:59:55.477Z,6.80
2017-10-26T04:01:02.430Z,6.60
2017-10-26T04:02:09.294Z,6.70
2017-10-26T04:03:16.237Z,6.80
2017-10-26T04:04:23.100Z,5.90
2017-10-26T04:05:29.981Z,6.00
2017-10-26T04:06:36.848Z,7.00
2017-10-26T04:07:43.721Z,6.30
2017-10-26T04:08:50.600Z,6.90
2017-10-26T04:09:57.453Z,6.60
2017-10-26T04:11:04.389Z,6.90
2017-10-26T04:12:11.249Z,6.60
2017-10-26T04:13:18.146Z,6.40
2017-10-26T04:14:24.979Z,6.50
2017-10-26T04:15:31.850Z,6.50
2017-10-26T04:16:38.782Z,5.80
2017-10-26T04:17:45.966Z,6.10
2017-10-26T04:18:52.867Z,6.80
2017-10-26T04:19:59.827Z,6.20
2017-10-26T04:21:06.667Z,6.50
2017-10-26T04:22:13.689Z,6.50
2017-10-26T04:23:20.662Z,7.00
2017-10-26T04:24:27.575Z,6.50
2017-10-26T04:25:34.698Z,6.90
2017-10-26T04:26:41.643Z,6.50
2017-10-26T04:27:48.537Z,6.70
2017-10-26T04:28:55.435Z,6.10
2017-10-26T04:30:02.348Z,6.40
2017-10-26T04:31:09.272Z,6.40
2017-10-26T04:32:16.393Z,6.00
2017-10-26T04:33:23.335Z,7.00
2017-10-26T04:34:30.329Z,6.20
2017-10-26T04:35:37.205Z,6.60
2017-10-26T04:36:44.094Z,6.40
2017-10-26T04:37:51.097Z,6.40
2017-10-26T04:38:57.962Z,6.70
2017-10-26T04:40:04.806Z,6.80
2017-10-26T04:41:11.811Z,6.00
2017-10-26T04:42:18.682Z,6.20
2017-10-26T04:43:25.553Z,6.30
2017-10-26T04:44:32.649Z,5.60
2017-10-26T04:45:39.481Z,5.90
2017-10-26T04:46:46.402Z,5.90
2017-10-26T04:47:53.535Z,5.80
2017-10-26T04:48:59.917Z,5.60
2017-10-26T04:50:06.798Z,5.90
2017-10-26T04:51:13.646Z,5.90
2017-10-26T04:52:20.502Z,5.20
2017-10-26T04:53:27.350Z,5.80
2017-10-26T04:54:34.247Z,6.10
2017-10-26T04:55:41.135Z,5.60
2017-10-26T04:56:47.981Z,6.10
2017-10-26T04:57:54.829Z,5.80
2017-10-26T04:59:01.663Z,6.30
2017-10-26T05:00:08.500Z,6.20
2017-10-26T05:01:15.353Z,5.80
2017-10-26T05:02:22.191Z,5.90
2017-10-26T05:03:29.029Z,6.30
2017-10-26T05:04:35.896Z,6.00
2017-10-26T05:05:42.758Z,6.50
2017-10-26T05:06:49.618Z,6.30
2017-10-26T05:07:56.454Z,6.30
2017-10-26T05:09:03.317Z,5.70
2017-10-26T05:10:10.221Z,5.70
2017-10-26T05:11:17.054Z,5.40
2017-10-26T05:12:23.889Z,5.80
2017-10-26T05:13:30.750Z,5.50
2017-10-26T05:14:37.586Z,6.50
2017-10-26T05:15:44.610Z,5.90
2017-10-26T05:16:51.594Z,5.60
2017-10-26T05:17:58.470Z,6.00
2017-10-26T05:19:05.390Z,5.80
2017-10-26T05:20:12.247Z,5.70
2017-10-26T05:21:19.098Z,5.50
2017-10-26T05:22:25.980Z,5.80
2017-10-26T05:23:33.116Z,5.90
2017-10-26T05:24:39.737Z,6.30
2017-10-26T05:25:46.641Z,5.50
2017-10-26T05:26:53.518Z,5.50
2017-10-26T05:28:00.395Z,5.40
2017-10-26T05:29:07.635Z,5.50
2017-10-26T05:30:14.149Z,5.80
2017-10-26T05:31:21.128Z,5.20
2017-10-26T05:32:27.997Z,5.20
2017-10-26T05:33:34.958Z,5.70
2017-10-26T05:34:42.046Z,5.40
2017-10-26T05:35:48.922Z,6.20
2017-10-26T05:36:56.197Z,5.10
2017-10-26T05:38:03.045Z,5.70
2017-10-26T05:39:10.102Z,5.50
2017-10-26T05:40:17.002Z,5.10
2017-10-26T05:41:23.901Z,5.30
2017-10-26T05:42:30.793Z,6.20
2017-10-26T05:43:37.746Z,5.80
2017-10-26T05:44:44.578Z,5.30
2017-10-26T05:45:51.510Z,5.30
2017-10-26T05:46:58.522Z,5.60
2017-10-26T05:48:05.377Z,5.70
2017-10-26T05:49:12.286Z,6.10
2017-10-26T05:50:23.297Z,5.20
2017-10-26T05:51:26.011Z,5.10
2017-10-26T05:52:33.152Z,5.30
2017-10-26T05:53:39.859Z,5.70
2017-10-26T05:54:46.730Z,4.90
2017-10-26T05:55:53.624Z,4.70
2017-10-26T05:57:00.458Z,5.00
2017-10-26T05:58:07.324Z,5.80
2017-10-26T05:59:14.207Z,5.90
2017-10-26T06:00:21.062Z,5.20
2017-10-26T06:01:27.902Z,5.20
2017-10-26T06:02:34.782Z,5.80
2017-10-26T06:03:41.646Z,5.60
2017-10-26T06:04:48.489Z,5.40
2017-10-26T06:05:55.497Z,5.30
2017-10-26T06:07:02.400Z,5.20
2017-10-26T06:08:09.278Z,5.60
2017-10-26T06:09:16.153Z,5.30
2017-10-26T06:10:22.957Z,5.80
2017-10-26T06:11:30.134Z,5.80
2017-10-26T06:12:36.988Z,5.80
2017-10-26T06:13:43.898Z,6.10
2017-10-26T06:14:50.767Z,6.00
2017-10-26T06:15:57.608Z,5.80
2017-10-26T06:17:04.467Z,5.80
2017-10-26T06:18:11.323Z,5.50
2017-10-26T06:19:18.199Z,5.60
2017-10-26T06:20:25.458Z,5.90
2017-10-26T06:21:31.834Z,5.70
2017-10-26T06:22:38.706Z,4.90
2017-10-26T06:23:45.570Z,5.60
2017-10-26T06:24:52.392Z,5.60
2017-10-26T06:25:59.216Z,5.40
2017-10-26T06:27:06.068Z,5.30
2017-10-26T06:28:12.950Z,5.90
2017-10-26T06:29:19.821Z,6.80
2017-10-26T06:30:26.667Z,6.00
2017-10-26T06:31:33.502Z,6.70
2017-10-26T06:32:40.498Z,6.40
2017-10-26T06:33:47.392Z,6.50
2017-10-26T06:34:54.398Z,6.90
2017-10-26T06:36:01.305Z,7.30
2017-10-26T06:37:08.161Z,6.50
2017-10-26T06:38:15.039Z,7.00
2017-10-26T06:39:21.890Z,6.30
2017-10-26T06:40:28.729Z,7.80
2017-10-26T06:41:35.582Z,6.50
2017-10-26T06:42:42.428Z,6.70
2017-10-26T06:43:49.305Z,6.20
2017-10-26T06:44:56.148Z,6.00
2017-10-26T06:46:02.963Z,6.10
2017-10-26T06:47:09.829Z,6.00
2017-10-26T06:48:16.678Z,6.20
2017-10-26T06:49:23.600Z,7.20
2017-10-26T06:50:30.538Z,6.20
2017-10-26T06:51:37.493Z,5.70
2017-10-26T06:52:44.344Z,6.10
2017-10-26T06:53:51.213Z,5.60
2017-10-26T06:54:58.218Z,6.60
2017-10-26T06:56:05.239Z,6.30
2017-10-26T06:57:12.122Z,6.40
2017-10-26T06:58:19.082Z,6.50
2017-10-26T06:59:25.978Z,6.20
2017-10-26T07:00:32.843Z,6.40
2017-10-26T07:01:39.764Z,6.40
2017-10-26T07:02:46.606Z,6.20
2017-10-26T07:03:53.489Z,6.50
2017-10-26T07:05:00.374Z,7.10
2017-10-26T07:06:07.227Z,7.60
2017-10-26T07:07:14.074Z,7.90
2017-10-26T07:08:21.138Z,8.10
2017-10-26T07:09:28.032Z,8.30
2017-10-26T07:10:34.895Z,8.20
2017-10-26T07:11:41.766Z,8.50
2017-10-26T07:12:48.632Z,8.30
2017-10-26T07:13:55.514Z,8.30
2017-10-26T07:15:02.485Z,8.60
2017-10-26T07:16:09.326Z,8.80
2017-10-26T07:17:16.159Z,9.70
2017-10-26T07:18:22.996Z,8.90
2017-10-26T07:19:30.064Z,7.80
2017-10-26T07:20:36.905Z,9.20
2017-10-26T07:21:43.790Z,8.40
2017-10-26T07:22:50.626Z,9.70
2017-10-26T07:23:57.594Z,8.80
2017-10-26T07:25:04.544Z,9.40
2017-10-26T07:26:11.428Z,9.30
2017-10-26T07:27:18.641Z,8.30
2017-10-26T07:28:25.590Z,8.50
2017-10-26T07:29:32.376Z,8.50
2017-10-26T07:30:39.226Z,7.60
2017-10-26T07:31:46.081Z,7.70
2017-10-26T07:32:52.918Z,7.50
2017-10-26T07:33:59.781Z,8.10
2017-10-26T07:35:06.920Z,8.20
2017-10-26T07:36:13.345Z,7.60
2017-10-26T07:37:20.230Z,6.50
2017-10-26T07:38:27.106Z,6.90
2017-10-26T07:39:33.973Z,6.60
2017-10-26T07:40:40.894Z,6.80
2017-10-26T07:41:47.783Z,6.30
2017-10-26T07:42:54.814Z,6.40
2017-10-26T07:44:01.712Z,6.00
2017-10-26T07:45:08.579Z,6.30
2017-10-26T07:46:15.591Z,6.90
2017-10-26T07:47:22.458Z,6.70
2017-10-26T07:48:29.324Z,7.30
2017-10-26T07:49:36.201Z,8.10
2017-10-26T07:50:43.137Z,8.10
2017-10-26T07:51:49.989Z,8.30
2017-10-26T07:52:56.898Z,8.20
2017-10-26T07:54:03.760Z,7.80
2017-10-26T07:55:10.628Z,9.90
2017-10-26T07:56:17.597Z,7.90
2017-10-26T07:57:24.731Z,8.70
2017-10-26T07:58:31.566Z,7.80
2017-10-26T07:59:38.488Z,8.00
2017-10-26T08:00:45.479Z,7.40
2017-10-26T08:01:52.630Z,7.00
2017-10-26T08:02:59.947Z,7.50
2017-10-26T08:04:07.952Z,7.90
2017-10-26T08:05:13.179Z,8.70
2017-10-26T08:06:20.020Z,7.90
2017-10-26T08:07:26.853Z,8.40
2017-10-26T08:08:33.767Z,8.10
2017-10-26T08:09:40.769Z,8.00
2017-10-26T08:10:47.651Z,8.30
2017-10-26T08:11:54.493Z,7.90
2017-10-26T08:13:01.415Z,8.20
2017-10-26T08:14:08.316Z,7.60
2017-10-26T08:15:15.273Z,8.70
2017-10-26T08:16:22.094Z,7.60
2017-10-26T08:17:28.870Z,7.50
2017-10-26T08:18:35.685Z,6.90
2017-10-26T08:19:42.513Z,7.30
2017-10-26T08:20:49.383Z,7.90
2017-10-26T08:21:56.330Z,7.90
2017-10-26T08:23:03.331Z,7.70
2017-10-26T08:24:10.519Z,8.10
2017-10-26T08:25:17.433Z,7.00
2017-10-26T08:26:24.345Z,8.50
2017-10-26T08:27:31.246Z,8.50
2017-10-26T08:28:38.159Z,8.40
2017-10-26T08:29:45.049Z,8.30
2017-10-26T08:30:51.969Z,8.30
2017-10-26T08:31:58.856Z,8.10
2017-10-26T08:33:05.885Z,8.20
2017-10-26T08:34:12.801Z,7.50
2017-10-26T08:35:19.729Z,8.20
2017-10-26T08:36:26.580Z,7.70
2017-10-26T08:37:33.603Z,7.80
2017-10-26T08:38:40.514Z,7.50
2017-10-26T08:39:47.400Z,7.80
2017-10-26T08:40:54.437Z,8.20
2017-10-26T08:42:01.286Z,7.50
2017-10-26T08:43:08.157Z,7.50
2017-10-26T08:44:15.011Z,8.00
2017-10-26T08:45:21.849Z,7.60
2017-10-26T08:46:28.654Z,8.20
2017-10-26T08:47:35.547Z,7.20
2017-10-26T08:48:42.391Z,8.10
2017-10-26T08:49:49.286Z,8.00
2017-10-26T08:50:56.294Z,7.40
2017-10-26T08:52:03.241Z,7.60
2017-10-26T08:53:10.106Z,8.00
2017-10-26T08:54:16.959Z,7.10
2017-10-26T08:55:23.785Z,7.00
2017-10-26T08:56:30.670Z,7.70
2017-10-26T08:57:37.574Z,7.30
2017-10-26T08:58:44.581Z,7.70
2017-10-26T08:59:51.621Z,7.00
2017-10-26T09:00:58.571Z,7.20
2017-10-26T09:02:05.433Z,7.30
2017-10-26T09:03:12.329Z,7.00
2017-10-26T09:04:19.179Z,7.70
2017-10-26T09:05:26.065Z,8.10
2017-10-26T09:06:32.989Z,8.10
2017-10-26T09:07:39.945Z,7.30
2017-10-26T09:08:47.769Z,6.60
2017-10-26T09:09:53.653Z,7.50
2017-10-26T09:11:00.522Z,7.10
2017-10-26T09:12:07.471Z,7.30
2017-10-26T09:13:14.435Z,7.40
2017-10-26T09:14:21.291Z,7.50
2017-10-26T09:15:28.177Z,8.20
2017-10-26T09:16:35.078Z,7.70
2017-10-26T09:17:41.978Z,7.90
2017-10-26T09:18:48.949Z,7.90
2017-10-26T09:19:55.909Z,7.90
2017-10-26T09:21:02.802Z,7.00
2017-10-26T09:22:09.819Z,8.00
2017-10-26T09:23:16.835Z,7.90
2017-10-26T09:24:24.002Z,8.20
2017-10-26T09:25:30.877Z,8.60
2017-10-26T09:26:37.799Z,8.50
2017-10-26T09:27:44.726Z,8.20
2017-10-26T09:28:51.638Z,7.80
2017-10-26T09:29:58.569Z,8.30
2017-10-26T09:31:05.476Z,8.30
2017-10-26T09:32:12.377Z,8.00
2017-10-26T09:33:19.225Z,8.00
2017-10-26T09:34:26.137Z,9.00
2017-10-26T09:35:33.050Z,9.00
2017-10-26T09:36:40.261Z,9.00
2017-10-26T09:37:47.342Z,9.50
2017-10-26T09:38:54.265Z,9.20
2017-10-26T09:40:01.168Z,9.50
2017-10-26T09:41:08.042Z,9.50
2017-10-26T09:42:15.006Z,10.50
2017-10-26T09:43:21.878Z,9.10
2017-10-26T09:44:29.122Z,10.20
2017-10-26T09:45:35.936Z,10.00
2017-10-26T09:46:42.869Z,10.30
2017-10-26T09:47:49.937Z,10.00
2017-10-26T09:48:56.789Z,10.60
2017-10-26T09:50:03.689Z,9.50
2017-10-26T09:51:10.541Z,10.60
2017-10-26T09:52:17.290Z,11.10
2017-10-26T09:53:24.210Z,13.10
2017-10-26T09:54:31.126Z,12.70
2017-10-26T09:55:38.201Z,12.30
2017-10-26T09:56:45.166Z,12.50
2017-10-26T09:57:52.131Z,12.90
2017-10-26T09:58:58.966Z,11.60
2017-10-26T10:00:05.878Z,12.10
2017-10-26T10:01:12.745Z,11.90
2017-10-26T10:02:19.553Z,11.90
2017-10-26T10:03:26.689Z,11.30
2017-10-26T10:04:33.096Z,12.90
2017-10-26T10:05:40.001Z,12.90
2017-10-26T10:06:46.926Z,11.40
2017-10-26T10:07:53.770Z,11.60
2017-10-26T10:09:00.599Z,11.90
2017-10-26T10:10:07.663Z,13.50
2017-10-26T10:11:14.549Z,13.10
2017-10-26T10:12:21.488Z,12.80
2017-10-26T10:13:28.413Z,13.10
2017-10-26T10:14:35.569Z,13.50
2017-10-26T10:15:42.374Z,13.90
2017-10-26T10:16:49.251Z,13.40
2017-10-26T10:17:56.138Z,13.80
2017-10-26T10:19:03.039Z,14.20
2017-10-26T10:20:10.186Z,13.30
2017-10-26T10:21:16.661Z,14.10
2017-10-26T10:22:23.561Z,14.60
2017-10-26T10:23:30.423Z,14.10
2017-10-26T10:24:37.258Z,15.00
2017-10-26T10:25:44.158Z,14.20
2017-10-26T10:26:50.989Z,14.10
2017-10-26T10:27:57.890Z,13.80
2017-10-26T10:29:04.697Z,13.00
2017-10-26T10:30:11.595Z,14.30
2017-10-26T10:31:18.663Z,14.90
2017-10-26T10:32:25.622Z,14.20
2017-10-26T10:33:32.601Z,14.20
2017-10-26T10:34:39.658Z,14.60
2017-10-26T10:35:46.601Z,14.20
2017-10-26T10:36:53.513Z,14.40
2017-10-26T10:38:00.418Z,14.60
2017-10-26T10:39:07.330Z,13.80
2017-10-26T10:40:14.159Z,13.60
2017-10-26T10:41:21.077Z,12.50
2017-10-26T10:42:27.987Z,13.70
2017-10-26T10:43:34.881Z,13.30
2017-10-26T10:44:41.761Z,13.90
2017-10-26T10:45:48.630Z,14.40
2017-10-26T10:46:55.494Z,13.50
2017-10-26T10:48:02.405Z,13.90
2017-10-26T10:49:09.396Z,12.40
2017-10-26T10:50:16.272Z,13.30
2017-10-26T10:51:23.186Z,12.60
2017-10-26T10:52:30.071Z,12.80
2017-10-26T10:53:36.966Z,12.30
2017-10-26T10:54:43.837Z,13.40
2017-10-26T10:55:50.764Z,13.60
2017-10-26T10:56:57.617Z,12.50
2017-10-26T10:58:04.556Z,12.70
2017-10-26T10:59:11.456Z,13.20
2017-10-26T11:00:18.403Z,13.10
2017-10-26T11:01:25.349Z,14.00
2017-10-26T11:02:32.041Z,14.00
2017-10-26T11:03:38.945Z,14.70
2017-10-26T11:04:45.830Z,14.60
2017-10-26T11:05:52.700Z,14.00
2017-10-26T11:06:59.630Z,14.50
2017-10-26T11:08:06.537Z,14.60
2017-10-26T11:09:13.473Z,15.00
2017-10-26T11:10:20.326Z,14.70
2017-10-26T11:11:27.253Z,15.00
2017-10-26T11:12:34.190Z,14.70
2017-10-26T11:13:41.104Z,15.10
2017-10-26T11:14:48.014Z,14.40
2017-10-26T11:15:54.914Z,14.30
2017-10-26T11:17:01.758Z,14.70
2017-10-26T11:18:08.652Z,13.30
2017-10-26T11:19:15.587Z,14.70
2017-10-26T11:20:22.454Z,14.70
2017-10-26T11:21:29.392Z,13.60
2017-10-26T11:22:36.318Z,13.80
2017-10-26T11:23:43.299Z,14.20
2017-10-26T11:24:50.194Z,14.40
2017-10-26T11:25:57.099Z,14.30
2017-10-26T11:27:03.966Z,15.30
2017-10-26T11:28:10.677Z,14.30
2017-10-26T11:29:17.856Z,14.60
2017-10-26T11:30:24.667Z,14.00
2017-10-26T11:31:31.748Z,14.50
2017-10-26T11:32:38.753Z,13.90
2017-10-26T11:33:45.699Z,14.80
2017-10-26T11:34:52.568Z,14.10
2017-10-26T11:35:59.502Z,14.00
2017-10-26T11:37:06.425Z,14.90
2017-10-26T11:38:13.293Z,15.50
2017-10-26T11:39:20.142Z,15.90
2017-10-26T11:40:27.038Z,16.50
2017-10-26T11:41:33.917Z,15.50
2017-10-26T11:42:41.041Z,15.90
2017-10-26T11:43:47.905Z,14.60
2017-10-26T11:44:54.785Z,16.90
2017-10-26T11:46:01.629Z,15.20
2017-10-26T11:47:08.562Z,14.70
2017-10-26T11:48:15.427Z,14.60
2017-10-26T11:49:22.319Z,15.90
2017-10-26T11:50:29.187Z,14.70
2017-10-26T11:51:36.311Z,15.00
2017-10-26T11:52:43.217Z,13.90
2017-10-26T11:53:50.198Z,13.90
2017-10-26T11:54:57.086Z,14.30
2017-10-26T11:56:04.011Z,14.20
2017-10-26T11:57:10.977Z,14.60
2017-10-26T11:58:17.790Z,14.90
2017-10-26T11:59:24.945Z,14.60
2017-10-26T12:00:31.834Z,14.60
2017-10-26T12:01:38.833Z,14.40
2017-10-26T12:02:45.700Z,14.30
2017-10-26T12:03:52.662Z,14.20
2017-10-26T12:04:59.558Z,15.50
2017-10-26T12:06:06.408Z,14.20
2017-10-26T12:07:13.375Z,13.50
2017-10-26T12:08:20.234Z,15.00
2017-10-26T12:09:27.156Z,14.20
2017-10-26T12:10:33.979Z,14.30
2017-10-26T12:11:40.871Z,14.20
2017-10-26T12:12:47.729Z,14.80
2017-10-26T12:13:54.629Z,14.00
2017-10-26T12:15:01.552Z,13.90
2017-10-26T12:16:08.490Z,13.40
2017-10-26T12:17:15.353Z,15.30
2017-10-26T12:18:22.202Z,14.60
2017-10-26T12:19:29.254Z,14.20
2017-10-26T12:20:36.195Z,14.10
2017-10-26T12:21:43.060Z,12.90
2017-10-26T12:22:49.866Z,13.30
2017-10-26T12:23:56.763Z,12.90
2017-10-26T12:25:03.681Z,13.60
2017-10-26T12:26:10.579Z,13.10
2017-10-26T12:27:17.416Z,14.30
2017-10-26T12:28:24.313Z,13.60
2017-10-26T12:29:31.260Z,14.00
2017-10-26T12:30:38.167Z,15.20
2017-10-26T12:31:45.142Z,13.50
2017-10-26T12:32:51.961Z,14.90
2017-10-26T12:33:58.858Z,13.90
2017-10-26T12:35:05.959Z,14.90
2017-10-26T12:36:12.952Z,13.90
2017-10-26T12:37:19.911Z,14.70
2017-10-26T12:38:26.803Z,14.30
2017-10-26T12:39:33.765Z,14.10
2017-10-26T12:40:40.749Z,14.30
2017-10-26T12:41:47.557Z,15.30
2017-10-26T12:42:54.454Z,15.80
2017-10-26T12:44:01.526Z,15.40
2017-10-26T12:45:08.421Z,15.50
2017-10-26T12:46:15.269Z,17.40
2017-10-26T12:47:22.430Z,17.60
2017-10-26T12:48:29.270Z,18.90
2017-10-26T12:49:36.146Z,18.00
2017-10-26T12:50:43.015Z,19.00
2017-10-26T12:51:50.046Z,15.00
2017-10-26T12:52:56.910Z,16.20
2017-10-26T12:54:03.825Z,15.30
2017-10-26T12:55:10.720Z,14.90
2017-10-26T12:56:17.582Z,14.70
2017-10-26T12:57:24.473Z,14.10
2017-10-26T12:58:31.420Z,14.50
2017-10-26T12:59:38.296Z,14.80
2017-10-26T13:00:45.206Z,15.50
2017-10-26T13:01:52.051Z,15.50
2017-10-26T13:02:58.892Z,16.20
2017-10-26T13:04:05.786Z,16.80
2017-10-26T13:05:12.742Z,15.60
2017-10-26T13:06:20.009Z,15.20
2017-10-26T13:07:26.390Z,16.30
2017-10-26T13:08:33.454Z,15.10
2017-10-26T13:09:40.253Z,15.80
2017-10-26T13:10:47.171Z,16.20
2017-10-26T13:11:54.061Z,15.80
2017-10-26T13:13:00.877Z,14.90
2017-10-26T13:14:07.808Z,15.90
2017-10-26T13:15:14.697Z,15.70
2017-10-26T13:16:21.622Z,16.60
2017-10-26T13:17:28.542Z,15.10
2017-10-26T13:18:35.467Z,16.00
2017-10-26T13:19:42.335Z,15.90
2017-10-26T13:20:49.236Z,15.40
2017-10-26T13:21:56.158Z,16.10
2017-10-26T13:23:03.005Z,15.70
2017-10-26T13:24:09.820Z,16.00
2017-10-26T13:25:16.664Z,16.00
2017-10-26T13:26:23.529Z,15.00
2017-10-26T13:27:30.482Z,14.80
2017-10-26T13:28:37.303Z,15.40
2017-10-26T13:29:44.116Z,15.90
2017-10-26T13:30:50.982Z,15.80
2017-10-26T13:31:57.799Z,16.00
2017-10-26T13:33:04.726Z,15.80
2017-10-26T13:34:11.564Z,15.80
2017-10-26T13:35:18.474Z,15.70
2017-10-26T13:36:25.285Z,14.90
2017-10-26T13:37:32.110Z,15.50
2017-10-26T13:38:38.909Z,15.40
2017-10-26T13:39:46.152Z,15.30
2017-10-26T13:40:52.484Z,17.00
2017-10-26T13:41:59.268Z,15.40
2017-10-26T13:43:06.061Z,14.80
2017-10-26T13:44:12.962Z,15.60
2017-10-26T13:45:19.778Z,15.90
2017-10-26T13:46:26.700Z,16.40
2017-10-26T13:47:33.535Z,15.40
2017-10-26T13:48:40.419Z,15.50
2017-10-26T13:49:47.320Z,14.90
2017-10-26T13:50:54.534Z,15.80
2017-10-26T13:52:00.880Z,15.20
2017-10-26T13:53:07.770Z,15.70
2017-10-26T13:54:14.581Z,15.80
2017-10-26T13:55:21.385Z,15.70
2017-10-26T13:56:28.285Z,15.60
2017-10-26T13:57:35.392Z,15.10
2017-10-26T13:58:41.694Z,15.80
2017-10-26T13:59:48.485Z,15.90
2017-10-26T14:00:55.275Z,16.20
2017-10-26T14:02:02.142Z,16.00
2017-10-26T14:03:08.977Z,15.60
2017-10-26T14:04:15.837Z,16.00
2017-10-26T14:05:22.581Z,17.80
2017-10-26T14:06:29.357Z,20.40
2017-10-26T14:07:36.174Z,16.00
2017-10-26T14:08:42.934Z,15.10
2017-10-26T14:09:49.721Z,14.80
2017-10-26T14:10:56.528Z,15.50
2017-10-26T14:12:03.353Z,15.10
2017-10-26T14:13:10.117Z,15.30
2017-10-26T14:14:16.894Z,15.00
2017-10-26T14:15:23.683Z,15.60
2017-10-26T14:16:30.585Z,37.30
2017-10-26T14:17:37.382Z,23.90
2017-10-26T14:18:44.195Z,15.90
2017-10-26T14:19:50.982Z,24.80
2017-10-26T14:20:57.786Z,16.40
2017-10-26T14:22:04.562Z,16.10
2017-10-26T14:23:11.369Z,15.00
2017-10-26T14:24:18.298Z,15.60
2017-10-26T14:25:25.054Z,15.30
2017-10-26T14:26:31.888Z,15.90
2017-10-26T14:27:38.654Z,14.90
2017-10-26T14:28:45.504Z,14.00
2017-10-26T14:29:52.360Z,15.00
2017-10-26T14:30:59.154Z,15.00
2017-10-26T14:32:06.077Z,14.60
2017-10-26T14:33:12.874Z,14.90
2017-10-26T14:34:19.638Z,15.50
2017-10-26T14:35:26.474Z,15.30
2017-10-26T14:36:33.288Z,14.30
2017-10-26T14:37:40.120Z,14.30
2017-10-26T14:38:46.898Z,14.10
2017-10-26T14:39:53.689Z,14.80
2017-10-26T14:41:00.493Z,14.30